createdAt,value
2022-08-02T00:02:16.143Z,100428.56
2022-08-02T00:06:18.504Z,100440.34
2022-08-02T00:10:20.814Z,100450.03
2022-08-02T00:14:22.885Z,100442.31
2022-08-02T00:18:25.239Z,100430.56
2022-08-02T00:22:27.328Z,100438.41
2022-08-02T00:26:29.895Z,100457.47
2022-08-02T00:30:31.992Z,100467.56
2022-08-02T00:34:38.024Z,100472.88
2022-08-02T00:38:40.447Z,100459.53
2022-08-02T00:42:44.367Z,100461.78
2022-08-02T00:46:47.159Z,100460.66
2022-08-02T00:50:49.457Z,100465.56
2022-08-02T00:54:51.551Z,100456.88
2022-08-02T00:58:53.796Z,100439.09
2022-08-02T01:02:55.998Z,100442.78
2022-08-02T01:07:12.639Z,100450.91
2022-08-02T01:11:15.417Z,100474.44
2022-08-02T01:15:18.846Z,100530.63
2022-08-02T01:19:51.635Z,100514.59
2022-08-02T01:24:12.484Z,100490.38
2022-08-02T01:28:23.845Z,100487.16
2022-08-02T01:32:34.254Z,100490.34
2022-08-02T01:36:40.575Z,100497.22
2022-08-02T01:40:45.365Z,100498.47
2022-08-02T01:44:52.588Z,100469.06
2022-08-02T01:48:58.364Z,100477.34
2022-08-02T01:53:06.179Z,100476.50
2022-08-02T01:57:13.331Z,100469.81
2022-08-02T02:01:18.745Z,100478.31
2022-08-02T02:05:24.448Z,100490.41
2022-08-02T02:09:31.838Z,100503.25
2022-08-02T02:13:36.495Z,100522.69
2022-08-02T02:17:52.044Z,100520.34
2022-08-02T02:22:06.235Z,100522.94
2022-08-02T02:26:13.844Z,100533.16
2022-08-02T02:30:17.119Z,100525.94
2022-08-02T02:34:27.994Z,100507.88
2022-08-02T02:38:33.607Z,100509.09
2022-08-02T02:42:35.916Z,100520.69
2022-08-02T02:46:39.053Z,100523.88
2022-08-02T02:50:44.522Z,100500.69
2022-08-02T02:54:49.300Z,100513.84
2022-08-02T02:58:56.922Z,100517.00
2022-08-02T03:02:59.414Z,100533.06
2022-08-02T03:07:01.737Z,100511.81
2022-08-02T03:11:04.564Z,100495.78
2022-08-02T03:15:08.465Z,100495.19
2022-08-02T03:19:10.884Z,100500.19
2022-08-02T03:23:12.858Z,100499.91
2022-08-02T03:27:15.117Z,100500.47
2022-08-02T03:31:17.295Z,100514.72
2022-08-02T03:35:24.085Z,100510.53
2022-08-02T03:39:28.666Z,100497.13
2022-08-02T03:43:32.481Z,100497.41
2022-08-02T03:47:36.334Z,100507.59
2022-08-02T03:51:39.379Z,100522.25
2022-08-02T03:55:41.534Z,100518.81
2022-08-02T03:59:46.690Z,100521.63
2022-08-02T04:03:48.765Z,100527.50
2022-08-02T04:08:34.299Z,100530.03
2022-08-02T04:12:14.125Z,100542.91
2022-08-02T04:16:22.850Z,100536.47
2022-08-02T04:20:30.242Z,100520.88
2022-08-02T04:24:38.815Z,100520.19
2022-08-02T04:28:43.032Z,100516.97
2022-08-02T04:32:46.290Z,100512.59
2022-08-02T04:36:48.960Z,100499.84
2022-08-02T04:40:53.928Z,100512.31
2022-08-02T04:44:56.046Z,100509.09
2022-08-02T04:48:58.483Z,100509.22
2022-08-02T04:53:00.967Z,100519.97
2022-08-02T04:57:23.184Z,100521.66
2022-08-02T05:01:25.228Z,100530.00
2022-08-02T05:05:27.855Z,100540.03
2022-08-02T05:09:30.028Z,100540.88
2022-08-02T05:13:32.231Z,100541.41
2022-08-02T05:17:34.494Z,100542.78
2022-08-02T05:21:37.179Z,100559.44
2022-08-02T05:25:39.178Z,100581.25
2022-08-02T05:29:41.931Z,100597.41
2022-08-02T05:33:56.331Z,100610.22
2022-08-02T05:37:58.596Z,100611.75
2022-08-02T05:42:00.794Z,100632.44
2022-08-02T05:46:03.072Z,100637.25
2022-08-02T05:50:08.045Z,100654.56
2022-08-02T05:54:24.033Z,100673.81
2022-08-02T05:58:41.637Z,100709.81
2022-08-02T06:02:43.865Z,100711.41
2022-08-02T06:06:52.571Z,100710.75
2022-08-02T06:11:01.590Z,100715.41
2022-08-02T06:15:05.110Z,100719.38
2022-08-02T06:19:08.227Z,100733.59
2022-08-02T06:23:13.766Z,100729.47
2022-08-02T06:27:19.179Z,100740.16
2022-08-02T06:31:21.242Z,100739.84
2022-08-02T06:35:35.417Z,100742.63
2022-08-02T06:39:52.660Z,100746.50
2022-08-02T06:44:19.452Z,100748.06
2022-08-02T06:48:24.539Z,100750.25
2022-08-02T06:52:31.401Z,100742.91
2022-08-02T06:56:33.545Z,100745.75
2022-08-02T07:00:37.001Z,100754.00
2022-08-02T07:04:39.084Z,100754.13
2022-08-02T07:08:50.941Z,100760.69
2022-08-02T07:13:02.039Z,100766.03
2022-08-02T07:17:04.483Z,100766.38
2022-08-02T07:21:08.869Z,100761.19
2022-08-02T07:25:12.224Z,100756.63
2022-08-02T07:29:14.301Z,100754.56
2022-08-02T07:33:37.910Z,100753.78
2022-08-02T07:37:55.096Z,100762.50
2022-08-02T07:42:01.848Z,100758.81
2022-08-02T07:46:03.916Z,100757.25
2022-08-02T07:50:07.745Z,100752.63
2022-08-02T07:54:09.885Z,100756.19
2022-08-02T07:58:13.618Z,100759.34
2022-08-02T08:02:16.666Z,100764.00
2022-08-02T08:06:18.870Z,100759.22
2022-08-02T08:10:32.838Z,100764.81
2022-08-02T08:14:35.212Z,100766.69
2022-08-02T08:18:37.409Z,100770.06
2022-08-02T08:22:39.940Z,100768.28
2022-08-02T08:26:41.885Z,100768.91
2022-08-02T08:30:44.054Z,100770.16
2022-08-02T08:34:47.385Z,100770.16
2022-08-02T08:38:50.501Z,100769.44
2022-08-02T08:42:53.115Z,100773.34
2022-08-02T08:46:58.741Z,100772.88
2022-08-02T08:51:19.198Z,100768.50
2022-08-02T08:55:24.711Z,100772.66
2022-08-02T08:59:26.838Z,100770.94
2022-08-02T09:03:29.355Z,100773.72
2022-08-02T09:07:36.232Z,100770.94
2022-08-02T09:11:39.445Z,100775.75
2022-08-02T09:15:42.899Z,100771.50
2022-08-02T09:19:45.896Z,100771.50
2022-08-02T09:23:51.767Z,100772.72
2022-08-02T09:27:54.856Z,100774.22
2022-08-02T09:32:03.568Z,100778.06
2022-08-02T09:36:24.733Z,100777.63
2022-08-02T09:40:36.175Z,100787.19
2022-08-02T09:44:38.812Z,100786.31
2022-08-02T09:48:53.058Z,100785.06
2022-08-02T09:52:57.199Z,100796.78
2022-08-02T09:57:01.751Z,100791.78
2022-08-02T10:01:04.480Z,100784.34
2022-08-02T10:05:06.954Z,100785.34
2022-08-02T10:09:10.478Z,100778.88
2022-08-02T10:13:12.580Z,100781.56
2022-08-02T10:17:25.400Z,100779.94
2022-08-02T10:21:33.710Z,100781.88
2022-08-02T10:25:37.643Z,100782.84
2022-08-02T10:29:44.787Z,100774.22
2022-08-02T10:34:00.177Z,100784.25
2022-08-02T10:38:11.020Z,100776.59
2022-08-02T10:42:45.522Z,100775.50
2022-08-02T10:46:47.627Z,100781.72
2022-08-02T10:50:49.935Z,100786.66
2022-08-02T10:55:00.136Z,100779.81
2022-08-02T10:59:30.687Z,100778.75
2022-08-02T11:03:33.664Z,100775.94
2022-08-02T11:07:49.317Z,100769.75
2022-08-02T11:12:03.423Z,100778.75
2022-08-02T11:16:11.352Z,100769.59
2022-08-02T11:20:16.843Z,100769.72
2022-08-02T11:24:31.768Z,100770.22
2022-08-02T11:28:34.146Z,100768.88
2022-08-02T11:32:36.769Z,100773.03
2022-08-02T11:36:49.054Z,100772.00
2022-08-02T11:40:57.198Z,100767.59
2022-08-02T11:45:00.174Z,100779.59
2022-08-02T11:49:18.886Z,100779.81
2022-08-02T11:53:21.133Z,100777.63
2022-08-02T11:57:23.614Z,100778.34
2022-08-02T12:01:25.649Z,100782.44
2022-08-02T12:06:03.009Z,100784.81
2022-08-02T12:09:50.769Z,100781.44
2022-08-02T12:13:57.207Z,100777.88
2022-08-02T12:18:18.622Z,100780.13
2022-08-02T12:22:27.459Z,100774.91
2022-08-02T12:26:30.372Z,100773.28
2022-08-02T12:30:49.408Z,100769.84
2022-08-02T12:35:07.093Z,100776.16
2022-08-02T12:39:16.996Z,100779.13
2022-08-02T12:43:22.016Z,100777.31
2022-08-02T12:47:25.161Z,100774.97
2022-08-02T12:51:56.357Z,100778.06
2022-08-02T12:56:03.706Z,100771.88
2022-08-02T13:00:06.886Z,100782.88
2022-08-02T13:04:13.638Z,100780.09
2022-08-02T13:08:17.007Z,100777.28
2022-08-02T13:12:19.312Z,100767.44
2022-08-02T13:16:30.618Z,100776.13
2022-08-02T13:20:33.990Z,100778.50
2022-08-02T13:24:39.673Z,100783.38
2022-08-02T13:28:42.928Z,100791.28
2022-08-02T13:32:45.058Z,100774.41
2022-08-02T13:36:47.289Z,100778.50
2022-08-02T13:41:08.114Z,100777.09
2022-08-02T13:45:12.659Z,100777.22
2022-08-02T13:49:19.806Z,100778.00
2022-08-02T13:53:22.950Z,100776.47
2022-08-02T13:57:24.945Z,100772.63
2022-08-02T14:01:27.316Z,100771.81
2022-08-02T14:05:39.254Z,100771.09
2022-08-02T14:09:50.308Z,100769.78
2022-08-02T14:13:52.649Z,100763.28
2022-08-02T14:17:54.971Z,100767.25
2022-08-02T14:22:10.927Z,100765.25
2022-08-02T14:26:16.065Z,100775.16
2022-08-02T14:30:30.201Z,100773.75
2022-08-02T14:34:32.533Z,100762.75
2022-08-02T14:38:37.114Z,100763.16
2022-08-02T14:42:39.557Z,100767.78
2022-08-02T14:46:41.816Z,100765.72
2022-08-02T14:50:44.124Z,100761.03
2022-08-02T14:54:46.809Z,100758.31
2022-08-02T14:58:49.570Z,100764.28
2022-08-02T15:02:51.631Z,100770.78
2022-08-02T15:06:54.906Z,100771.16
2022-08-02T15:10:57.045Z,100765.75
2022-08-02T15:15:00.385Z,100761.09
2022-08-02T15:19:03.119Z,100765.03
2022-08-02T15:23:08.883Z,100758.22
2022-08-02T15:27:14.540Z,100767.59
2022-08-02T15:31:22.559Z,100776.25
2022-08-02T15:35:35.525Z,100778.94
2022-08-02T15:39:37.998Z,100770.84
2022-08-02T15:44:00.227Z,100780.06
2022-08-02T15:48:03.971Z,100775.03
2022-08-02T15:52:06.062Z,100770.59
2022-08-02T15:56:12.793Z,100768.66
2022-08-02T16:00:18.874Z,100771.91
2022-08-02T16:04:21.566Z,100778.50
2022-08-02T16:08:23.628Z,100778.53
2022-08-02T16:12:32.105Z,100775.75
2022-08-02T16:16:37.153Z,100777.44
2022-08-02T16:20:39.574Z,100778.31
2022-08-02T16:24:41.737Z,100780.69
2022-08-02T16:28:44.110Z,100783.94
2022-08-02T16:32:46.205Z,100790.34
2022-08-02T16:36:48.557Z,100793.19
2022-08-02T16:40:50.592Z,100789.13
2022-08-02T16:44:54.892Z,100794.03
2022-08-02T16:48:57.422Z,100791.97
2022-08-02T16:52:59.744Z,100790.59
2022-08-02T16:57:09.405Z,100795.91
2022-08-02T17:01:11.707Z,100798.16
2022-08-02T17:05:14.692Z,100796.50
2022-08-02T17:10:01.634Z,100791.16
2022-08-02T17:13:39.159Z,100797.34
2022-08-02T17:17:43.217Z,100796.00
2022-08-02T17:21:45.424Z,100800.63
2022-08-02T17:25:52.348Z,100800.00
2022-08-02T17:29:55.486Z,100803.94
2022-08-02T17:33:58.465Z,100805.66
2022-08-02T17:38:01.873Z,100800.38
2022-08-02T17:42:07.664Z,100804.66
2022-08-02T17:46:09.756Z,100778.06
2022-08-02T17:50:12.578Z,100788.81
2022-08-02T17:54:17.395Z,100783.31
2022-08-02T17:58:21.347Z,100787.34
2022-08-02T18:02:35.065Z,100777.88
2022-08-02T18:06:37.654Z,100769.16
2022-08-02T18:10:39.817Z,100754.53
2022-08-02T18:14:46.187Z,100754.59
2022-08-02T18:18:51.476Z,100757.56
2022-08-02T18:22:58.369Z,100756.09
2022-08-02T18:27:01.079Z,100743.44
2022-08-02T18:31:06.561Z,100740.50
2022-08-02T18:35:09.346Z,100746.19
2022-08-02T18:39:11.578Z,100743.00
2022-08-02T18:43:13.555Z,100744.16
2022-08-02T18:47:16.795Z,100732.41
2022-08-02T18:51:19.368Z,100729.53
2022-08-02T18:55:59.923Z,100741.84
2022-08-02T18:59:43.966Z,100736.38
2022-08-02T19:03:53.758Z,100737.13
2022-08-02T19:07:55.819Z,100719.25
2022-08-02T19:11:58.038Z,100723.53
2022-08-02T19:16:00.135Z,100721.47
2022-08-02T19:20:04.162Z,100718.00
2022-08-02T19:24:06.965Z,100718.66
2022-08-02T19:28:11.246Z,100719.47
2022-08-02T19:32:40.430Z,100722.13
2022-08-02T19:36:36.426Z,100721.00
2022-08-02T19:40:42.108Z,100712.44
2022-08-02T19:44:45.616Z,100716.81
2022-08-02T19:48:47.988Z,100715.69
2022-08-02T19:52:52.848Z,100705.91
2022-08-02T19:56:54.962Z,100709.53
2022-08-02T20:00:59.410Z,100714.41
2022-08-02T20:05:01.492Z,100722.38
2022-08-02T20:09:33.149Z,100718.50
2022-08-02T20:13:47.201Z,100719.16
2022-08-02T20:17:52.872Z,100719.47
2022-08-02T20:21:59.419Z,100723.38
2022-08-02T20:26:02.727Z,100729.97
2022-08-02T20:30:05.146Z,100723.41
2022-08-02T20:34:07.551Z,100725.31
2022-08-02T20:38:11.944Z,100738.22
2022-08-02T20:42:22.791Z,100735.13
2022-08-02T20:46:26.516Z,100728.81
2022-08-02T20:50:49.284Z,100732.63
2022-08-02T20:54:53.105Z,100738.50
2022-08-02T20:58:55.966Z,100753.72
2022-08-02T21:03:07.076Z,100761.84
2022-08-02T21:07:11.582Z,100745.47
2022-08-02T21:11:15.149Z,100746.44
2022-08-02T21:15:17.496Z,100752.28
2022-08-02T21:19:19.555Z,100754.22
2022-08-02T21:23:24.461Z,100741.53
2022-08-02T21:27:52.041Z,100750.91
2022-08-02T21:31:49.323Z,100761.09
2022-08-02T21:35:54.196Z,100752.94
2022-08-02T21:39:56.525Z,100759.66
2022-08-02T21:44:03.344Z,100757.41
2022-08-02T21:48:08.987Z,100758.78
2022-08-02T21:52:15.160Z,100769.09
2022-08-02T21:56:18.989Z,100775.97
2022-08-02T22:00:28.321Z,100763.72
2022-08-02T22:04:31.279Z,100763.81
2022-08-02T22:08:33.272Z,100766.88
2022-08-02T22:12:37.207Z,100761.44
2022-08-02T22:16:40.204Z,100764.63
2022-08-02T22:20:43.511Z,100767.81
2022-08-02T22:24:48.549Z,100771.38
2022-08-02T22:28:56.151Z,100795.53
2022-08-02T22:33:20.848Z,100788.66
2022-08-02T22:38:17.228Z,100782.19
2022-08-02T22:42:05.790Z,100781.72
2022-08-02T22:46:15.610Z,100791.19
2022-08-02T22:50:19.353Z,100790.72
2022-08-02T23:30:24.818Z,100798.81
2022-08-02T23:34:27.076Z,100793.38
2022-08-02T23:38:29.126Z,100784.81
2022-08-02T23:42:31.283Z,100774.53
2022-08-02T23:46:33.444Z,100796.31
2022-08-02T23:50:35.780Z,100819.00
2022-08-02T23:54:39.418Z,100833.13
2022-08-02T23:58:41.903Z,100813.69
